Time;durP1;ratioP1;P1;durP2;ratioP2;P2;SDS_P1;SDS_P2;PMS_P1;PMS_P2;Temp;Humidity;BMP_temperature;BMP_pressure;BME280_temperature;BME280_humidity;BME280_pressure;Samples;Min_cycle;Max_cycle;Signal;HPM_P1;HPM_P2
2024/04/02 00:01:38;;;;;;;40.55;7.60;;;;;;;17.55;51.64;99400.58;123166;1099;104235;-73
2024/04/02 00:04:16;;;;;;;41.80;7.57;;;;;;;17.54;51.58;99400.59;123407;1099;104249;-73
2024/04/02 00:06:48;;;;;;;37.00;7.47;;;;;;;17.51;51.61;99398.84;123566;1099;104338;-73
2024/04/02 00:09:19;;;;;;;33.27;7.40;;;;;;;17.50;51.82;99394.45;123083;1099;104411;-73
2024/04/02 00:11:50;;;;;;;41.10;9.15;;;;;;;17.49;51.67;99394.47;123262;1099;104273;-74
2024/04/02 00:14:22;;;;;;;38.33;6.80;;;;;;;17.50;51.88;99386.49;123082;1099;112559;-73
2024/04/02 00:16:53;;;;;;;34.83;7.00;;;;;;;17.52;51.80;99381.17;123147;1099;104290;-74
2024/04/02 00:19:24;;;;;;;37.73;8.53;;;;;;;17.51;51.88;99385.58;123081;1099;104271;-74
2024/04/02 00:21:55;;;;;;;38.07;8.00;;;;;;;17.51;52.11;99387.36;123131;1099;104402;-74
2024/04/02 00:24:27;;;;;;;34.27;7.63;;;;;;;17.52;51.79;99384.70;123148;1099;104268;-74
2024/04/02 00:26:58;;;;;;;40.30;7.27;;;;;;;17.53;51.89;99383.81;123490;1099;104300;-74
2024/04/02 00:29:29;;;;;;;39.37;7.50;;;;;;;17.53;52.09;99383.81;123469;1098;104337;-74
2024/04/02 00:32:01;;;;;;;30.70;6.90;;;;;;;17.54;51.97;99382.02;123199;1099;104336;-74
2024/04/02 00:34:32;;;;;;;41.10;7.83;;;;;;;17.54;52.11;99377.59;123189;1099;104319;-74
2024/04/02 00:37:06;;;;;;;40.03;8.90;;;;;;;17.54;52.32;99380.23;123471;1099;104322;-74
2024/04/02 00:39:37;;;;;;;36.20;7.07;;;;;;;17.52;52.32;99368.78;123440;1099;104219;-74
2024/04/02 00:42:09;;;;;;;38.30;7.13;;;;;;;17.51;52.37;99363.49;123270;1099;104326;-75
2024/04/02 00:44:40;;;;;;;38.67;7.10;;;;;;;17.49;52.01;99358.20;123532;1099;105473;-74
2024/04/02 00:47:14;;;;;;;36.13;7.60;;;;;;;17.44;51.78;99354.73;123238;1099;104530;-73
2024/04/02 00:49:44;;;;;;;;;;;;;;;17.38;52.22;99360.97;123203;1099;104322;-74
2024/04/02 00:52:16;;;;;;;40.50;7.93;;;;;;;17.37;52.31;99364.53;123196;1099;104354;-74
2024/04/02 00:54:48;;;;;;;41.30;7.03;;;;;;;17.35;52.46;99366.30;123258;1098;104268;-74
2024/04/02 00:57:19;;;;;;;34.15;7.15;;;;;;;17.36;52.61;99365.42;123247;1099;104316;-74
2024/04/02 00:59:51;;;;;;;35.27;6.87;;;;;;;17.34;52.43;99361.02;123353;1099;104374;-74
2024/04/02 01:02:24;;;;;;;29.13;6.13;;;;;;;17.31;52.39;99353.09;123483;1099;104262;-74
2024/04/02 01:04:55;;;;;;;35.10;6.70;;;;;;;17.28;52.44;99348.72;123567;1099;104319;-74
2024/04/02 01:07:27;;;;;;;35.90;6.97;;;;;;;17.27;52.48;99346.95;123469;1099;104257;-74
2024/04/02 01:09:58;;;;;;;34.70;6.83;;;;;;;17.23;52.49;99348.77;123261;1099;104249;-74
2024/04/02 01:12:29;;;;;;;35.73;7.53;;;;;;;17.23;52.48;99346.11;123524;1099;104285;-74
2024/04/02 01:15:01;;;;;;;42.20;7.13;;;;;;;17.20;52.51;99340.84;123419;1099;104255;-73
2024/04/02 01:17:32;;;;;;;43.63;8.40;;;;;;;17.19;52.67;99335.55;123223;1099;104271;-74
2024/04/02 01:20:04;;;;;;;35.55;7.00;;;;;;;17.19;52.75;99344.38;123173;1099;104408;-73
2024/04/02 01:22:35;;;;;;;31.90;6.40;;;;;;;17.18;52.59;99342.61;123138;1099;104293;-74
2024/04/02 01:25:09;;;;;;;44.80;6.73;;;;;;;17.20;52.41;99335.53;123388;1099;104380;-73
2024/04/02 01:27:38;;;;;;;;;;;;;;;17.21;52.45;99333.75;123241;1099;104351;-73
2024/04/02 01:30:11;;;;;;;40.23;7.30;;;;;;;17.22;52.41;99325.79;123455;1099;104206;-74
2024/04/02 01:32:42;;;;;;;35.50;6.80;;;;;;;17.24;52.42;99321.34;123232;1099;104344;-73
2024/04/02 01:35:15;;;;;;;42.27;6.60;;;;;;;17.27;52.55;99327.53;123110;1099;104392;-73
2024/04/02 01:37:46;;;;;;;34.80;6.87;;;;;;;17.29;52.46;99325.72;123085;1099;104348;-74
2024/04/02 01:40:18;;;;;;;38.30;7.03;;;;;;;17.31;52.66;99321.27;123138;1099;104311;-73
2024/04/02 01:42:49;;;;;;;33.90;6.90;;;;;;;17.28;52.35;99319.55;123137;1099;104367;-73
2024/04/02 01:45:21;;;;;;;33.40;6.80;;;;;;;17.29;52.54;99323.94;123085;1099;104251;-73
2024/04/02 01:47:52;;;;;;;40.17;7.10;;;;;;;17.29;52.37;99331.03;123529;1099;104699;-73
2024/04/02 01:50:23;;;;;;;32.77;6.37;;;;;;;17.30;52.56;99330.14;123205;1100;104351;-74
2024/04/02 01:52:55;;;;;;;38.23;7.20;;;;;;;17.30;52.43;99327.49;123146;1098;104258;-73
2024/04/02 01:55:26;;;;;;;36.70;6.45;;;;;;;17.31;52.35;99323.92;123269;1099;104360;-73
2024/04/02 01:57:57;;;;;;;33.00;6.83;;;;;;;17.31;52.73;99316.88;123159;1102;104332;-74
2024/04/02 02:00:30;;;;;;;40.20;7.80;;;;;;;17.29;52.35;99312.47;123158;1099;104322;-74
2024/04/02 02:03:02;;;;;;;38.30;7.30;;;;;;;17.28;52.85;99308.05;123172;1099;104269;-73
2024/04/02 02:05:34;;;;;;;39.00;6.90;;;;;;;17.28;52.45;99305.41;123303;1099;104296;-72
2024/04/02 02:08:06;;;;;;;44.40;8.43;;;;;;;17.27;52.81;99304.53;123270;1099;104268;-73
2024/04/02 02:10:38;;;;;;;40.50;6.67;;;;;;;17.26;52.59;99289.51;123572;1098;104299;-74
2024/04/02 02:13:09;;;;;;;37.63;7.07;;;;;;;17.24;52.50;99292.17;123267;1099;104331;-74
2024/04/02 02:15:41;;;;;;;37.45;6.95;;;;;;;17.21;52.62;99286.05;123389;1099;104351;-74
2024/04/02 02:18:12;;;;;;;32.50;6.80;;;;;;;17.17;52.67;99284.30;123464;1099;104239;-73
2024/04/02 02:20:43;;;;;;;36.90;7.43;;;;;;;17.12;52.80;99288.78;123421;1099;104360;-73
2024/04/02 02:23:15;;;;;;;35.60;6.87;;;;;;;17.09;52.81;99276.44;123190;1099;104380;-73
2024/04/02 02:25:46;;;;;;;41.03;7.73;;;;;;;17.04;52.66;99279.13;123387;1099;104303;-74
2024/04/02 02:28:18;;;;;;;42.47;7.23;;;;;;;17.01;52.79;99275.64;123227;1099;104380;-73
2024/04/02 02:30:49;;;;;;;34.93;7.37;;;;;;;16.96;52.61;99272.17;123198;1099;104431;-73
2024/04/02 02:33:21;;;;;;;35.40;8.20;;;;;;;16.94;52.81;99272.19;123830;1099;104307;-74
2024/04/02 02:35:55;;;;;;;37.47;6.33;;;;;;;16.91;52.89;99266.02;123126;1099;104239;-74
2024/04/02 02:38:26;;;;;;;38.43;8.10;;;;;;;16.88;53.35;99261.64;123121;1099;104370;-73
2024/04/02 02:41:02;;;;;;;37.67;6.83;;;;;;;16.86;53.34;99268.71;123135;1099;104395;-73
2024/04/02 02:43:35;;;;;;;36.87;8.40;;;;;;;16.82;53.05;99259.89;123122;1099;104335;-73
2024/04/02 02:46:07;;;;;;;39.17;6.97;;;;;;;16.79;53.22;99267.00;123155;1099;104491;-73
2024/04/02 02:48:38;;;;;;;35.57;7.53;;;;;;;16.79;53.54;99253.75;123412;1099;104262;-73
2024/04/02 02:51:09;;;;;;;45.53;7.67;;;;;;;16.78;53.30;99247.59;123192;1099;104256;-73
2024/04/02 02:53:41;;;;;;;31.80;7.10;;;;;;;16.76;53.35;99244.05;123404;1099;104392;-73
2024/04/02 02:56:12;;;;;;;41.35;7.70;;;;;;;16.76;53.55;99237.89;123352;1099;104284;-73
2024/04/02 02:58:43;;;;;;;38.37;7.67;;;;;;;16.74;53.38;99229.09;123113;1099;104270;-73
2024/04/02 03:01:15;;;;;;;37.63;7.50;;;;;;;16.72;53.21;99229.10;123278;1099;104313;-73
2024/04/02 03:03:49;;;;;;;37.03;6.87;;;;;;;16.72;53.51;99229.10;123211;1099;104348;-74
2024/04/02 03:06:23;;;;;;;50.23;8.13;;;;;;;16.67;53.70;99225.60;123216;1099;104338;-73
2024/04/02 03:08:56;;;;;;;36.60;7.63;;;;;;;16.65;53.69;99224.75;123184;1099;104299;-72
2024/04/02 03:11:27;;;;;;;38.73;8.17;;;;;;;16.62;53.44;99217.70;123198;1099;104354;-73
2024/04/02 03:14:02;;;;;;;43.70;7.33;;;;;;;16.59;53.72;99220.38;123215;1099;104342;-73
2024/04/02 03:16:34;;;;;;;38.83;7.57;;;;;;;16.58;53.89;99218.64;123219;1102;104378;-73
2024/04/02 03:19:05;;;;;;;44.83;7.80;;;;;;;16.56;53.31;99223.05;123157;1099;104376;-72
2024/04/02 03:21:36;;;;;;;39.03;7.33;;;;;;;16.57;54.04;99229.25;123133;1102;104300;-73
2024/04/02 03:24:08;;;;;;;31.80;7.27;;;;;;;16.56;54.13;99227.48;123329;1099;104331;-73
2024/04/02 03:26:39;;;;;;;32.13;6.83;;;;;;;16.54;53.92;99233.66;123317;1099;104278;-73
2024/04/02 03:29:10;;;;;;;34.83;7.73;;;;;;;16.53;53.76;99225.72;123449;1102;104293;-73
2024/04/02 03:31:42;;;;;;;32.70;6.27;;;;;;;16.54;54.18;99227.49;123153;1099;104427;-73
2024/04/02 03:34:13;;;;;;;31.80;6.53;;;;;;;16.53;53.65;99226.63;123571;1099;104360;-73
2024/04/02 03:36:45;;;;;;;29.80;7.00;;;;;;;16.52;53.66;99224.86;123319;1099;104236;-73
2024/04/02 03:39:16;;;;;;;41.27;7.67;;;;;;;16.51;53.65;99219.58;123190;1099;104244;-74
2024/04/02 03:41:48;;;;;;;33.93;7.93;;;;;;;16.52;53.68;99221.34;123158;1100;104343;-73
2024/04/02 03:44:19;;;;;;;38.23;7.23;;;;;;;16.52;54.33;99221.34;123156;1099;104443;-74
2024/04/02 03:46:50;;;;;;;46.05;7.50;;;;;;;16.50;54.41;99208.11;123160;1099;104265;-74
2024/04/02 03:49:22;;;;;;;38.77;7.83;;;;;;;16.48;54.28;99211.66;123196;1099;104699;-73
2024/04/02 03:51:53;;;;;;;39.97;7.80;;;;;;;16.46;54.32;99202.86;123477;1099;104265;-72
2024/04/02 03:54:24;;;;;;;38.60;7.95;;;;;;;16.44;53.90;99204.62;123425;1099;104341;-73
2024/04/02 03:56:56;;;;;;;42.17;9.30;;;;;;;16.43;54.62;99202.89;123123;1100;104397;-74
2024/04/02 03:59:29;;;;;;;37.80;8.20;;;;;;;16.41;54.59;99199.36;123150;1099;104293;-74
2024/04/02 04:02:00;;;;;;;42.90;8.37;;;;;;;16.39;53.94;99193.20;123175;1099;104245;-73
2024/04/02 04:04:31;;;;;;;48.83;11.03;;;;;;;16.34;54.67;99188.81;123292;1099;104245;-74
2024/04/02 04:07:03;;;;;;;38.77;7.10;;;;;;;16.32;54.51;99184.45;123134;1099;104367;-74
2024/04/02 04:09:34;;;;;;;44.37;8.83;;;;;;;16.31;54.06;99186.23;123242;1099;104408;-74
2024/04/02 04:12:06;;;;;;;37.73;7.90;;;;;;;16.32;54.16;99185.31;123418;1099;104268;-73
2024/04/02 04:14:37;;;;;;;43.63;8.70;;;;;;;16.32;54.69;99174.73;123588;1099;104341;-73
2024/04/02 04:17:09;;;;;;;40.57;9.03;;;;;;;16.34;54.98;99164.99;123215;1102;104380;-75
2024/04/02 04:19:40;;;;;;;37.07;7.67;;;;;;;16.35;54.37;99164.11;123521;1099;104242;-73
2024/04/02 04:22:11;;;;;;;37.30;6.95;;;;;;;16.36;54.90;99175.56;123268;1099;104405;-73
2024/04/02 04:24:43;;;;;;;47.30;8.90;;;;;;;16.38;55.11;99167.61;123313;1099;104341;-73
2024/04/02 04:27:14;;;;;;;49.93;9.47;;;;;;;16.39;54.60;99164.09;123546;1099;104245;-73
2024/04/02 04:29:48;;;;;;;43.70;7.93;;;;;;;16.42;54.65;99167.57;123388;1099;104312;-74
2024/04/02 04:32:19;;;;;;;33.30;8.07;;;;;;;16.46;55.31;99161.36;123386;1099;104296;-73
2024/04/02 04:34:50;;;;;;;47.63;7.80;;;;;;;16.49;54.59;99153.39;123547;1099;104258;-73
2024/04/02 04:37:22;;;;;;;41.25;8.75;;;;;;;16.51;55.27;99148.95;123462;1099;104339;-74
2024/04/02 04:39:53;;;;;;;41.73;8.40;;;;;;;16.53;55.14;99152.48;123372;1099;104344;-76
2024/04/02 04:42:24;;;;;;;37.00;8.83;;;;;;;16.58;55.21;99154.19;123462;1100;104386;-74
2024/04/02 04:44:56;;;;;;;46.13;8.10;;;;;;;16.62;54.93;99150.62;123683;1099;104307;-73
2024/04/02 04:47:28;;;;;;;44.77;7.70;;;;;;;16.63;55.20;99153.26;123443;1099;104339;-74
2024/04/02 04:49:59;;;;;;;39.87;8.17;;;;;;;16.70;55.16;99154.06;123758;1099;104268;-75
2024/04/02 04:52:30;;;;;;;42.03;8.23;;;;;;;16.77;55.39;99142.52;123501;1099;104312;-73
2024/04/02 04:55:01;;;;;;;34.13;8.60;;;;;;;16.82;54.97;99145.98;123554;1099;104773;-74
2024/04/02 04:57:33;;;;;;;43.13;8.73;;;;;;;16.87;55.00;99136.23;123886;1099;104249;-73
2024/04/02 05:00:06;;;;;;;37.20;7.43;;;;;;;16.97;55.00;99136.12;123451;1099;107513;-73
2024/04/02 05:02:37;;;;;;;36.20;7.37;;;;;;;17.07;55.54;99133.34;123770;1099;104245;-73
2024/04/02 05:05:10;;;;;;;44.50;8.80;;;;;;;17.17;55.26;99131.47;123310;1099;104280;-73
2024/04/02 05:07:55;;;;;;;41.20;7.93;;;;;;;17.27;55.22;99128.70;123446;1099;104245;-74
2024/04/02 05:10:27;;;;;;;39.77;8.23;;;;;;;17.35;55.15;99122.38;123540;1099;118251;-77
2024/04/02 05:12:58;;;;;;;37.77;8.53;;;;;;;17.44;55.16;99121.38;123684;1098;104220;-73
2024/04/02 05:15:30;;;;;;;47.13;7.93;;;;;;;17.51;55.31;99115.07;123884;1099;104198;-73
2024/04/02 05:18:02;;;;;;;46.63;8.90;;;;;;;17.59;55.11;99112.30;123489;1099;104242;-74
2024/04/02 05:20:34;;;;;;;40.80;8.27;;;;;;;17.64;54.98;99112.23;123998;1098;104265;-73
2024/04/02 05:23:08;;;;;;;47.57;9.13;;;;;;;17.73;55.14;99101.48;123624;1102;104229;-76
2024/04/02 05:25:40;;;;;;;42.07;7.90;;;;;;;17.83;54.96;99100.45;123737;1100;104246;-73
2024/04/02 05:28:11;;;;;;;45.83;9.13;;;;;;;17.92;54.73;99095.03;124139;1099;104169;-73
2024/04/02 05:30:43;;;;;;;42.43;8.80;;;;;;;17.98;54.68;99093.16;123557;1099;104277;-73
2024/04/02 05:33:14;;;;;;;48.30;9.15;;;;;;;18.04;54.64;99090.41;123862;1099;104267;-75
2024/04/02 05:35:46;;;;;;;44.13;8.27;;;;;;;18.09;55.04;99084.13;123978;1099;104248;-73
2024/04/02 05:38:17;;;;;;;32.80;7.57;;;;;;;18.15;54.48;99083.12;123775;1099;105181;-75
2024/04/02 05:40:50;;;;;;;48.20;9.37;;;;;;;18.19;54.48;99073.34;124090;1098;104101;-75
2024/04/02 05:43:24;;;;;;;45.60;8.75;;;;;;;18.21;54.36;99064.43;123972;1099;104169;-74
2024/04/02 05:45:55;;;;;;;39.13;7.50;;;;;;;18.23;54.56;99057.33;124134;1099;104368;-75
2024/04/02 05:48:27;;;;;;;39.53;7.83;;;;;;;18.22;54.24;99054.70;123935;1099;104242;-74
2024/04/02 05:50:59;;;;;;;42.40;8.17;;;;;;;18.21;53.95;99053.81;123842;1099;104384;-72
2024/04/02 05:53:30;;;;;;;39.87;8.30;;;;;;;18.20;54.19;99056.49;123916;1099;104297;-73
2024/04/02 05:56:03;;;;;;;50.23;8.57;;;;;;;18.18;54.31;99056.52;123975;1099;104172;-73
2024/04/02 05:58:35;;;;;;;42.67;8.27;;;;;;;18.16;54.35;99060.12;125004;1099;104296;-74
2024/04/02 06:01:10;;;;;;;42.70;8.50;;;;;;;18.13;54.24;99061.91;124142;1099;104226;-73
2024/04/02 06:03:42;;;;;;;41.70;8.30;;;;;;;18.12;54.48;99067.25;124162;1099;104261;-72
2024/04/02 06:06:13;;;;;;;42.37;7.63;;;;;;;18.16;54.27;99063.65;124020;1099;104271;-74
2024/04/02 06:08:47;;;;;;;39.17;8.20;;;;;;;18.18;53.75;99061.83;124452;1099;104223;-73
2024/04/02 06:11:18;;;;;;;;;;;;;;;18.21;53.62;99067.08;124012;1099;102307;-73
2024/04/02 06:13:50;;;;;;;42.83;8.27;;;;;;;18.26;54.18;99069.66;124198;1098;104226;-74
2024/04/02 06:16:22;;;;;;;44.27;9.03;;;;;;;18.35;53.86;99064.17;124286;1098;102630;-77
2024/04/02 06:18:54;;;;;;;40.77;8.83;;;;;;;18.43;53.71;99054.30;124041;1099;104239;-74
2024/04/02 06:21:25;;;;;;;43.40;8.83;;;;;;;18.52;54.43;99063.85;123989;1099;104313;-74
2024/04/02 06:23:58;;;;;;;51.47;8.60;;;;;;;18.60;54.11;99051.28;124181;1098;104235;-76
2024/04/02 06:26:30;;;;;;;44.83;8.17;;;;;;;18.68;54.28;99057.34;124496;1099;104239;-74
2024/04/02 06:29:03;;;;;;;48.73;9.87;;;;;;;18.75;54.26;99051.90;124444;1099;104245;-75
2024/04/02 06:31:35;;;;;;;44.73;9.00;;;;;;;18.83;53.65;99023.38;124307;1099;104233;-74
2024/04/02 06:34:07;;;;;;;44.80;7.80;;;;;;;18.92;54.12;99027.66;124201;1099;104262;-75
2024/04/02 06:36:40;;;;;;;56.05;11.00;;;;;;;18.97;53.57;99026.63;124259;1099;104207;-76
2024/04/02 06:39:12;;;;;;;41.80;8.47;;;;;;;19.06;54.25;99025.56;124263;1099;105344;-77
2024/04/02 06:41:44;;;;;;;39.73;8.40;;;;;;;19.08;53.74;99029.05;123754;1099;104361;-73
2024/04/02 06:44:19;;;;;;;41.47;7.77;;;;;;;19.22;53.57;99026.95;124085;1099;104245;-74
2024/04/02 06:46:55;;;;;;;45.30;8.23;;;;;;;19.25;53.55;99017.17;123960;1099;104245;-74
2024/04/02 06:49:30;;;;;;;44.07;7.93;;;;;;;19.32;53.84;99018.75;123996;1102;104242;-73
2024/04/02 06:52:04;;;;;;;38.83;7.43;;;;;;;19.42;53.02;99011.45;124046;1099;104242;-73
2024/04/02 06:54:38;;;;;;;45.77;8.33;;;;;;;19.53;53.89;99012.92;123973;1099;104252;-72
2024/04/02 06:57:10;;;;;;;43.67;8.27;;;;;;;19.65;53.01;99017.08;124504;1099;104169;-73
2024/04/02 06:59:41;;;;;;;49.00;8.47;;;;;;;19.73;52.92;99012.42;124154;1099;104216;-75
2024/04/02 07:02:13;;;;;;;33.47;7.83;;;;;;;19.81;53.37;99017.59;124303;1099;104322;-75
2024/04/02 07:04:50;;;;;;;35.43;7.63;;;;;;;19.91;53.26;99015.55;124116;1101;102844;-73
2024/04/02 07:07:22;;;;;;;47.07;8.87;;;;;;;20.04;52.94;99010.77;124024;1099;104354;-73
2024/04/02 07:09:57;;;;;;;30.83;6.60;;;;;;;20.18;53.51;98997.08;124006;1099;104268;-73
2024/04/02 07:12:30;;;;;;;43.67;8.23;;;;;;;20.39;52.73;99000.95;123988;1102;104319;-74
2024/04/02 07:15:02;;;;;;;31.10;6.60;;;;;;;20.57;52.53;98996.86;124306;1099;104172;-73
2024/04/02 07:17:33;;;;;;;39.57;7.47;;;;;;;20.68;52.33;98991.25;124302;1099;104325;-73
2024/04/02 07:20:09;;;;;;;28.93;7.10;;;;;;;20.82;52.17;98991.73;124070;1099;104268;-74
2024/04/02 07:22:42;;;;;;;34.73;7.23;;;;;;;20.93;51.82;98970.08;124099;1099;104168;-75
2024/04/02 07:25:17;;;;;;;;;;;;;;;21.02;51.59;98956.47;124393;1098;104289;-74
2024/04/02 07:27:48;;;;;;;42.17;8.00;;;;;;;21.24;51.48;98950.41;123978;1099;104209;-74
2024/04/02 07:30:20;;;;;;;38.47;7.47;;;;;;;21.42;51.45;98957.81;123940;1099;103071;-73
2024/04/02 07:32:52;;;;;;;40.03;8.90;;;;;;;21.59;51.03;98954.61;124027;1099;104386;-76
2024/04/02 07:35:23;;;;;;;39.23;8.13;;;;;;;21.75;51.52;98952.28;123975;1099;104270;-73
2024/04/02 07:37:55;;;;;;;31.63;7.37;;;;;;;21.88;50.50;98939.40;124123;1099;104188;-73
2024/04/02 07:40:27;;;;;;;33.37;6.73;;;;;;;22.02;50.35;98930.89;123969;1099;104258;-73
2024/04/02 07:43:06;;;;;;;36.70;7.50;;;;;;;22.13;50.49;98910.00;124148;1099;104229;-73
2024/04/02 07:45:38;;;;;;;36.67;7.17;;;;;;;22.24;50.29;98898.91;124187;1099;104374;-72
2024/04/02 07:48:12;;;;;;;32.57;7.27;;;;;;;22.32;50.14;98893.31;123927;1102;104252;-73
2024/04/02 07:50:44;;;;;;;30.17;7.13;;;;;;;22.40;49.94;98876.04;124213;1099;104169;-73
2024/04/02 07:53:18;;;;;;;28.63;6.57;;;;;;;22.57;50.15;98880.73;124104;1099;104223;-75
2024/04/02 07:55:49;;;;;;;32.43;6.80;;;;;;;22.71;50.14;98876.65;123979;1099;103042;-73
2024/04/02 07:58:23;;;;;;;31.57;7.17;;;;;;;22.81;49.49;98861.96;124103;1100;102467;-75
2024/04/02 08:00:57;;;;;;;33.77;8.27;;;;;;;22.95;49.33;98862.29;124068;1102;104951;-72
2024/04/02 08:03:28;;;;;;;40.05;7.50;;;;;;;23.12;48.66;98855.38;124124;1099;104243;-73
2024/04/02 08:06:01;;;;;;;43.60;7.60;;;;;;;23.30;48.31;98865.31;124033;1099;104232;-73
2024/04/02 08:08:32;;;;;;;32.60;7.00;;;;;;;23.46;47.82;98854.81;124128;1099;104223;-73
2024/04/02 08:11:04;;;;;;;31.67;6.57;;;;;;;23.54;47.57;98849.13;124040;1099;104296;-75
2024/04/02 08:13:38;;;;;;;39.83;7.33;;;;;;;23.67;47.46;98841.44;124060;1100;104234;-73
2024/04/02 08:16:09;;;;;;;40.63;7.27;;;;;;;23.82;47.13;98838.05;123917;1099;104296;-73
2024/04/02 08:18:42;;;;;;;33.53;7.37;;;;;;;24.01;46.89;98830.09;124190;1102;101901;-73
2024/04/02 08:21:14;;;;;;;35.17;7.27;;;;;;;24.10;46.03;98826.10;123981;1102;104209;-75
2024/04/02 08:23:47;;;;;;;24.13;7.20;;;;;;;24.23;46.37;98826.39;123955;1099;104249;-74
2024/04/02 08:26:19;;;;;;;38.05;8.15;;;;;;;24.33;45.84;98811.63;123983;1102;102433;-76
2024/04/02 08:28:53;;;;;;;33.97;7.17;;;;;;;24.43;45.67;98797.78;124079;1099;104095;-74
2024/04/02 08:31:27;;;;;;;35.40;7.00;;;;;;;24.58;45.48;98789.89;124026;1099;104373;-75
2024/04/02 08:34:03;;;;;;;28.67;6.77;;;;;;;24.77;45.22;98786.30;124310;1099;104302;-75
2024/04/02 08:36:34;;;;;;;31.97;6.67;;;;;;;24.90;44.55;98778.49;124065;1099;104331;-73
2024/04/02 08:39:06;;;;;;;37.33;7.17;;;;;;;24.94;44.02;98780.09;124213;1099;104248;-73
2024/04/02 08:41:41;;;;;;;31.47;6.00;;;;;;;25.01;43.57;98783.31;123755;1099;104220;-72
2024/04/02 08:44:13;;;;;;;34.07;7.37;;;;;;;25.08;43.39;98790.97;124616;1099;104223;-72
2024/04/02 08:46:49;;;;;;;28.83;6.70;;;;;;;25.20;43.15;98810.10;124182;1099;104217;-74
2024/04/02 08:49:21;;;;;;;37.77;7.03;;;;;;;25.33;42.80;98800.48;126122;1099;102008;-73
2024/04/02 08:51:53;;;;;;;35.70;7.62;;;;;;;25.40;42.53;98791.17;124840;1099;104319;-75
2024/04/02 08:54:25;;;;;;;38.90;7.57;;;;;;;25.50;42.65;98782.63;123829;1099;104242;-72
2024/04/02 08:56:57;;;;;;;32.23;6.03;;;;;;;25.59;41.84;98768.71;124747;1099;102539;-75
2024/04/02 08:59:33;;;;;;;34.33;7.27;;;;;;;25.67;41.45;98800.53;124614;1098;104162;-74
2024/04/02 09:02:05;;;;;;;34.27;7.47;;;;;;;25.71;41.56;98783.28;124163;1099;104342;-72
2024/04/02 09:04:37;;;;;;;30.68;6.85;;;;;;;25.79;41.28;98776.55;124075;1099;104249;-73
2024/04/02 09:07:11;;;;;;;30.77;7.20;;;;;;;25.91;40.61;98764.25;124058;1099;104277;-74
2024/04/02 09:09:53;;;;;;;31.23;7.10;;;;;;;26.01;40.16;98756.60;123929;1099;104271;-73
2024/04/02 09:12:25;;;;;;;27.27;6.33;;;;;;;26.09;40.61;98751.66;124416;1099;104336;-73
2024/04/02 09:15:18;;;;;;;35.80;7.93;;;;;;;26.15;40.45;98740.56;124198;1099;104172;-74
2024/04/02 09:18:34;;;;;;;30.30;6.47;;;;;;;26.31;40.31;98723.56;124202;1099;104401;-75
2024/04/02 09:21:34;;;;;;;32.17;7.00;;;;;;;26.47;39.01;98743.22;125982;1098;101959;-77
2024/04/02 09:24:08;;;;;;;34.77;7.43;;;;;;;26.59;38.77;98721.97;124193;1099;104254;-73
2024/04/02 09:26:49;;;;;;;39.07;7.50;;;;;;;26.66;38.61;98708.10;124832;1099;104327;-73
2024/04/02 09:29:19;;;;;;;;;;;;;;;26.74;37.41;98691.51;123838;1099;104233;-75
2024/04/02 09:31:51;;;;;;;26.80;6.30;;;;;;;26.78;37.85;98682.27;123851;1099;104360;-75
2024/04/02 09:34:24;;;;;;;31.03;7.00;;;;;;;26.84;37.59;98667.59;124060;1099;104175;-76
2024/04/02 09:37:11;;;;;;;33.23;7.60;;;;;;;26.91;37.67;98685.08;124163;1099;104233;-74
2024/04/02 09:39:48;;;;;;;36.63;7.57;;;;;;;27.00;37.03;98684.52;124409;1099;104165;-74
2024/04/02 09:42:20;;;;;;;28.05;6.90;;;;;;;27.08;36.47;98687.64;124262;1099;104163;-76
2024/04/02 09:45:12;;;;;;;37.07;7.27;;;;;;;27.16;36.63;98695.25;124269;1099;104334;-74
2024/04/02 09:47:49;;;;;;;30.97;7.30;;;;;;;27.27;36.04;98694.58;123972;1099;104197;-73
2024/04/02 09:50:21;;;;;;;33.50;7.47;;;;;;;27.37;36.16;98692.20;123964;1099;104264;-77
2024/04/02 09:52:58;;;;;;;34.07;7.27;;;;;;;27.44;35.56;98672.88;123953;1099;104242;-73
2024/04/02 09:55:32;;;;;;;30.23;7.43;;;;;;;27.51;34.89;98673.34;124215;1099;104467;-72
2024/04/02 09:58:13;;;;;;;35.03;7.67;;;;;;;27.60;35.00;98679.99;126836;1099;102765;-73
2024/04/02 10:00:52;;;;;;;25.90;6.43;;;;;;;27.68;33.90;98668.73;126781;1098;101748;-72
2024/04/02 10:03:31;;;;;;;27.60;7.40;;;;;;;27.78;34.88;98656.38;126316;1099;102738;-72
2024/04/02 10:06:07;;;;;;;35.83;7.97;;;;;;;27.89;34.26;98656.56;125537;1099;102402;-76
2024/04/02 10:08:40;;;;;;;32.97;7.00;;;;;;;27.96;33.09;98655.22;124254;1099;104171;-74
2024/04/02 10:11:12;;;;;;;32.13;6.65;;;;;;;28.05;33.10;98651.06;124290;1100;103159;-73
2024/04/02 10:13:47;;;;;;;26.60;6.90;;;;;;;28.06;32.12;98647.38;124310;1099;102751;-72
2024/04/02 10:16:23;;;;;;;35.80;7.30;;;;;;;28.13;32.37;98647.86;124479;1099;103435;-76
2024/04/02 10:18:57;;;;;;;36.10;7.40;;;;;;;28.23;32.09;98648.10;124902;1099;102845;-76
2024/04/02 10:21:31;;;;;;;31.47;7.93;;;;;;;28.30;32.04;98644.05;124977;1099;104322;-74
2024/04/02 10:24:03;;;;;;;33.00;6.73;;;;;;;28.39;31.69;98634.45;124423;1099;104179;-75
2024/04/02 10:26:40;;;;;;;37.45;6.85;;;;;;;28.46;31.57;98633.93;124440;1102;102621;-76
2024/04/02 10:29:15;;;;;;;33.93;7.00;;;;;;;28.50;30.71;98624.67;124330;1099;104252;-73
2024/04/02 10:31:48;;;;;;;34.80;6.87;;;;;;;28.56;30.16;98622.52;124082;1099;104243;-73
2024/04/02 10:34:26;;;;;;;29.20;7.97;;;;;;;28.59;29.75;98608.84;124210;1099;104219;-73
2024/04/02 10:37:02;;;;;;;32.67;7.13;;;;;;;28.64;29.88;98621.06;124184;1099;104204;-73
2024/04/02 10:39:33;;;;;;;30.30;6.90;;;;;;;28.67;29.21;98615.45;123983;1099;104178;-74
2024/04/02 10:42:11;;;;;;;30.67;6.67;;;;;;;28.75;29.47;98627.53;124490;1099;104207;-76
2024/04/02 10:44:45;;;;;;;32.17;7.83;;;;;;;28.78;29.01;98638.12;124139;1099;104232;-74
2024/04/02 10:47:22;;;;;;;32.10;7.00;;;;;;;28.75;28.26;98652.70;124197;1099;107861;-72
2024/04/02 10:49:54;;;;;;;34.30;6.93;;;;;;;28.65;27.70;98648.90;125545;1099;101900;-73
2024/04/02 10:52:26;;;;;;;31.27;6.63;;;;;;;28.55;27.79;98659.43;124426;1099;103110;-75
2024/04/02 10:54:57;;;;;;;40.73;7.90;;;;;;;28.57;27.31;98660.18;124247;1099;104245;-71
2024/04/02 10:57:28;;;;;;;39.30;8.10;;;;;;;28.59;28.05;98662.80;124106;1099;102796;-72
2024/04/02 11:00:04;;;;;;;41.10;7.70;;;;;;;28.61;28.22;98672.54;124453;1099;104396;-75
2024/04/02 11:02:37;;;;;;;40.07;6.63;;;;;;;28.65;28.29;98657.84;124861;1099;102353;-72
2024/04/02 11:05:16;;;;;;;29.57;7.40;;;;;;;28.67;28.04;98628.06;124244;1099;101875;-72
2024/04/02 11:07:49;;;;;;;42.47;8.57;;;;;;;28.72;28.21;98643.94;124145;1099;104219;-73
2024/04/02 11:10:24;;;;;;;35.37;7.97;;;;;;;28.75;28.25;98650.02;123839;1099;104291;-73
2024/04/02 11:13:02;;;;;;;32.35;7.45;;;;;;;28.77;28.33;98652.60;123954;1099;104219;-74
2024/04/02 11:15:34;;;;;;;36.80;7.63;;;;;;;28.75;28.75;98643.73;123957;1099;104198;-72
2024/04/02 11:18:06;;;;;;;36.57;7.20;;;;;;;28.73;28.47;98648.38;123781;1099;112089;-73
2024/04/02 11:20:39;;;;;;;38.70;7.70;;;;;;;28.73;28.63;98640.28;123777;1102;104251;-72
2024/04/02 11:26:15;;;;;;;40.50;8.17;;;;;;;28.60;28.54;98651.91;123749;1099;104243;-73
2024/04/02 11:28:47;;;;;;;33.47;8.23;;;;;;;28.56;28.81;98644.95;123758;1102;104216;-72
2024/04/02 11:31:20;;;;;;;32.73;7.80;;;;;;;28.68;28.33;98641.45;123864;1098;104242;-75
2024/04/02 11:33:51;;;;;;;43.70;9.23;;;;;;;28.80;28.47;98644.30;124123;1099;104252;-72
2024/04/02 11:36:23;;;;;;;40.93;9.27;;;;;;;28.86;28.39;98633.08;124091;1099;104278;-72
2024/04/02 11:38:56;;;;;;;44.63;8.43;;;;;;;28.86;28.25;98643.87;123879;1099;104245;-72